Terminal Aerodrome Forecast
Issued by NWS

Home | Current Version | Previous Version | Text Only | Print | Product List | Glossary Off
Versions: 1 2 3 4 5 6 7 8 9 10 11 12 13 14 15 16 17 18 19 20 21 22 23 24

077
FTUS45 KGGW 161730
TAFOLF
TAF
KOLF 161730Z 1618/1718 26007KT P6SM BKN080
     FM170300 28005KT P6SM OVC025
     FM170500 31007KT P6SM OVC015
     FM171100 29010KT P6SM SCT035=

USA.gov is the U.S. government's official web portal to all federal, state and local government web resources and services.